sensor_id;sensor_type;location;lat;lon;timestamp;pressure;altitude;pressure_sealevel;temperature;humidity
11345;BME280;5727;42.600;23.028;2023-04-25T00:00:20;92907.22;;;10.67;100.00
11345;BME280;5727;42.600;23.028;2023-04-25T00:02:47;92905.63;;;10.62;100.00
11345;BME280;5727;42.600;23.028;2023-04-25T00:05:13;92904.72;;;10.55;100.00
11345;BME280;5727;42.600;23.028;2023-04-25T00:07:41;92900.38;;;10.62;100.00
11345;BME280;5727;42.600;23.028;2023-04-25T00:10:09;92901.63;;;10.68;100.00
11345;BME280;5727;42.600;23.028;2023-04-25T00:12:37;92909.63;;;10.75;100.00
11345;BME280;5727;42.600;23.028;2023-04-25T00:15:05;92900.47;;;10.66;100.00
11345;BME280;5727;42.600;23.028;2023-04-25T00:17:33;92911.06;;;10.54;100.00
11345;BME280;5727;42.600;23.028;2023-04-25T00:20:01;92913.22;;;10.48;100.00
11345;BME280;5727;42.600;23.028;2023-04-25T00:22:31;92924.09;;;10.50;100.00
11345;BME280;5727;42.600;23.028;2023-04-25T00:24:58;92916.91;;;10.47;100.00
11345;BME280;5727;42.600;23.028;2023-04-25T00:27:26;92916.09;;;10.62;100.00
11345;BME280;5727;42.600;23.028;2023-04-25T00:29:52;92915.97;;;10.74;100.00
11345;BME280;5727;42.600;23.028;2023-04-25T00:32:19;92896.25;;;10.80;100.00
11345;BME280;5727;42.600;23.028;2023-04-25T00:34:47;92884.38;;;10.86;100.00
11345;BME280;5727;42.600;23.028;2023-04-25T00:37:14;92868.19;;;10.81;100.00
11345;BME280;5727;42.600;23.028;2023-04-25T00:39:41;92878.03;;;10.68;100.00
11345;BME280;5727;42.600;23.028;2023-04-25T00:42:08;92877.91;;;10.61;100.00
11345;BME280;5727;42.600;23.028;2023-04-25T00:44:35;92870.19;;;10.49;100.00
11345;BME280;5727;42.600;23.028;2023-04-25T00:47:02;92883.44;;;10.37;100.00
11345;BME280;5727;42.600;23.028;2023-04-25T00:49:29;92884.88;;;10.35;100.00
11345;BME280;5727;42.600;23.028;2023-04-25T00:51:57;92886.38;;;10.36;100.00
11345;BME280;5727;42.600;23.028;2023-04-25T00:54:24;92878.44;;;10.32;100.00
11345;BME280;5727;42.600;23.028;2023-04-25T00:56:51;92883.25;;;10.30;100.00
11345;BME280;5727;42.600;23.028;2023-04-25T00:59:19;92871.00;;;10.34;100.00
11345;BME280;5727;42.600;23.028;2023-04-25T01:01:46;92885.06;;;10.45;100.00
11345;BME280;5727;42.600;23.028;2023-04-25T01:04:13;92865.72;;;10.50;100.00
11345;BME280;5727;42.600;23.028;2023-04-25T01:06:40;92864.69;;;10.54;100.00
11345;BME280;5727;42.600;23.028;2023-04-25T01:09:08;92858.41;;;10.59;100.00
11345;BME280;5727;42.600;23.028;2023-04-25T01:11:35;92848.34;;;10.61;100.00
11345;BME280;5727;42.600;23.028;2023-04-25T01:14:01;92851.03;;;10.64;100.00
11345;BME280;5727;42.600;23.028;2023-04-25T01:16:29;92857.78;;;10.65;100.00
11345;BME280;5727;42.600;23.028;2023-04-25T01:18:56;92855.78;;;10.59;100.00
11345;BME280;5727;42.600;23.028;2023-04-25T01:21:24;92851.31;;;10.59;100.00
11345;BME280;5727;42.600;23.028;2023-04-25T01:23:55;92849.09;;;10.61;100.00
11345;BME280;5727;42.600;23.028;2023-04-25T01:26:22;92852.91;;;10.64;100.00
11345;BME280;5727;42.600;23.028;2023-04-25T01:28:50;92851.44;;;10.66;100.00
11345;BME280;5727;42.600;23.028;2023-04-25T01:31:17;92854.88;;;10.70;100.00
11345;BME280;5727;42.600;23.028;2023-04-25T01:33:45;92867.91;;;10.67;100.00
11345;BME280;5727;42.600;23.028;2023-04-25T01:38:59;92863.66;;;10.59;100.00
11345;BME280;5727;42.600;23.028;2023-04-25T01:41:27;92859.22;;;10.63;100.00
11345;BME280;5727;42.600;23.028;2023-04-25T01:43:54;92860.34;;;10.62;100.00
11345;BME280;5727;42.600;23.028;2023-04-25T01:46:21;92867.56;;;10.49;100.00
11345;BME280;5727;42.600;23.028;2023-04-25T01:48:48;92862.06;;;10.35;100.00
11345;BME280;5727;42.600;23.028;2023-04-25T01:51:15;92861.91;;;10.28;100.00
11345;BME280;5727;42.600;23.028;2023-04-25T01:53:42;92852.00;;;10.37;100.00
11345;BME280;5727;42.600;23.028;2023-04-25T01:56:10;92849.31;;;10.53;100.00
11345;BME280;5727;42.600;23.028;2023-04-25T01:58:37;92845.78;;;10.64;100.00
11345;BME280;5727;42.600;23.028;2023-04-25T02:01:04;92843.78;;;10.77;100.00
11345;BME280;5727;42.600;23.028;2023-04-25T02:03:31;92842.63;;;10.74;100.00
11345;BME280;5727;42.600;23.028;2023-04-25T02:05:58;92841.59;;;10.79;100.00
11345;BME280;5727;42.600;23.028;2023-04-25T02:08:25;92845.50;;;10.88;100.00
11345;BME280;5727;42.600;23.028;2023-04-25T02:10:52;92844.97;;;10.79;100.00
11345;BME280;5727;42.600;23.028;2023-04-25T02:13:20;92840.25;;;10.88;100.00
11345;BME280;5727;42.600;23.028;2023-04-25T02:15:46;92849.63;;;10.89;100.00
11345;BME280;5727;42.600;23.028;2023-04-25T02:18:13;92850.41;;;10.71;100.00
11345;BME280;5727;42.600;23.028;2023-04-25T02:20:41;92842.50;;;10.67;100.00
11345;BME280;5727;42.600;23.028;2023-04-25T02:23:08;92849.09;;;10.61;100.00
11345;BME280;5727;42.600;23.028;2023-04-25T02:25:35;92835.53;;;10.75;100.00
11345;BME280;5727;42.600;23.028;2023-04-25T02:28:01;92839.44;;;10.84;100.00
11345;BME280;5727;42.600;23.028;2023-04-25T02:30:30;92838.06;;;10.90;100.00
11345;BME280;5727;42.600;23.028;2023-04-25T02:32:56;92838.88;;;10.94;100.00
11345;BME280;5727;42.600;23.028;2023-04-25T02:35:23;92839.56;;;10.91;100.00
11345;BME280;5727;42.600;23.028;2023-04-25T02:37:50;92830.31;;;10.97;100.00
11345;BME280;5727;42.600;23.028;2023-04-25T02:40:16;92825.53;;;11.03;100.00
11345;BME280;5727;42.600;23.028;2023-04-25T02:42:43;92824.09;;;11.05;100.00
11345;BME280;5727;42.600;23.028;2023-04-25T02:45:11;92818.13;;;11.08;100.00
11345;BME280;5727;42.600;23.028;2023-04-25T02:47:39;92824.19;;;11.13;100.00
11345;BME280;5727;42.600;23.028;2023-04-25T02:50:06;92816.75;;;11.15;100.00
11345;BME280;5727;42.600;23.028;2023-04-25T02:52:33;92816.75;;;11.15;100.00
11345;BME280;5727;42.600;23.028;2023-04-25T02:55:00;92810.00;;;11.14;100.00
11345;BME280;5727;42.600;23.028;2023-04-25T02:57:27;92818.22;;;11.12;100.00
11345;BME280;5727;42.600;23.028;2023-04-25T02:59:54;92807.19;;;11.03;100.00
11345;BME280;5727;42.600;23.028;2023-04-25T03:02:22;92804.50;;;10.99;100.00
11345;BME280;5727;42.600;23.028;2023-04-25T03:04:50;92804.88;;;10.98;100.00
11345;BME280;5727;42.600;23.028;2023-04-25T03:07:17;92812.66;;;10.94;100.00
11345;BME280;5727;42.600;23.028;2023-04-25T03:09:44;92814.63;;;11.01;100.00
11345;BME280;5727;42.600;23.028;2023-04-25T03:12:10;92808.72;;;11.04;100.00
11345;BME280;5727;42.600;23.028;2023-04-25T03:14:37;92809.19;;;11.10;100.00
11345;BME280;5727;42.600;23.028;2023-04-25T03:17:04;92809.94;;;11.10;100.00
11345;BME280;5727;42.600;23.028;2023-04-25T03:19:30;92813.75;;;11.16;100.00
11345;BME280;5727;42.600;23.028;2023-04-25T03:21:59;92804.03;;;11.17;100.00
11345;BME280;5727;42.600;23.028;2023-04-25T03:24:25;92802.19;;;11.17;100.00
11345;BME280;5727;42.600;23.028;2023-04-25T03:26:52;92804.03;;;11.17;100.00
11345;BME280;5727;42.600;23.028;2023-04-25T03:29:19;92785.69;;;11.17;100.00
11345;BME280;5727;42.600;23.028;2023-04-25T03:31:49;92788.72;;;11.19;100.00
11345;BME280;5727;42.600;23.028;2023-04-25T03:34:16;92784.59;;;11.18;100.00
11345;BME280;5727;42.600;23.028;2023-04-25T03:36:43;92783.06;;;11.17;100.00
11345;BME280;5727;42.600;23.028;2023-04-25T03:39:11;92791.41;;;10.99;100.00
11345;BME280;5727;42.600;23.028;2023-04-25T03:41:38;92792.53;;;10.98;100.00
11345;BME280;5727;42.600;23.028;2023-04-25T03:44:04;92798.44;;;10.95;100.00
11345;BME280;5727;42.600;23.028;2023-04-25T03:46:31;92803.84;;;10.83;100.00
11345;BME280;5727;42.600;23.028;2023-04-25T03:48:58;92810.41;;;10.93;100.00
11345;BME280;5727;42.600;23.028;2023-04-25T03:51:25;92799.91;;;10.93;100.00
11345;BME280;5727;42.600;23.028;2023-04-25T03:53:52;92812.94;;;10.89;100.00
11345;BME280;5727;42.600;23.028;2023-04-25T03:56:24;92801.47;;;10.97;100.00
11345;BME280;5727;42.600;23.028;2023-04-25T03:58:50;92794.78;;;11.00;100.00
11345;BME280;5727;42.600;23.028;2023-04-25T04:01:17;92800.34;;;11.18;100.00
11345;BME280;5727;42.600;23.028;2023-04-25T04:03:44;92795.19;;;11.25;100.00
11345;BME280;5727;42.600;23.028;2023-04-25T04:06:11;92800.38;;;11.21;100.00
11345;BME280;5727;42.600;23.028;2023-04-25T04:08:38;92804.44;;;11.19;100.00
11345;BME280;5727;42.600;23.028;2023-04-25T04:11:05;92806.66;;;11.17;100.00
11345;BME280;5727;42.600;23.028;2023-04-25T04:13:33;92806.66;;;11.17;100.00
11345;BME280;5727;42.600;23.028;2023-04-25T04:15:59;92811.81;;;11.10;100.00
11345;BME280;5727;42.600;23.028;2023-04-25T04:18:26;92809.88;;;11.06;100.00
11345;BME280;5727;42.600;23.028;2023-04-25T04:20:53;92805.31;;;11.03;100.00
11345;BME280;5727;42.600;23.028;2023-04-25T04:23:20;92811.44;;;11.11;100.00
11345;BME280;5727;42.600;23.028;2023-04-25T04:25:48;92804.03;;;11.17;100.00
11345;BME280;5727;42.600;23.028;2023-04-25T04:28:14;92801.97;;;11.26;100.00
11345;BME280;5727;42.600;23.028;2023-04-25T04:30:42;92797.59;;;11.33;100.00
11345;BME280;5727;42.600;23.028;2023-04-25T04:33:12;92792.25;;;11.30;100.00
11345;BME280;5727;42.600;23.028;2023-04-25T04:35:40;92799.44;;;11.33;100.00
11345;BME280;5727;42.600;23.028;2023-04-25T04:38:08;92796.97;;;11.43;100.00
11345;BME280;5727;42.600;23.028;2023-04-25T04:40:36;92793.47;;;11.58;100.00
11345;BME280;5727;42.600;23.028;2023-04-25T04:43:03;92796.22;;;11.65;100.00
11345;BME280;5727;42.600;23.028;2023-04-25T04:45:29;92803.09;;;11.73;100.00
11345;BME280;5727;42.600;23.028;2023-04-25T04:47:58;92797.38;;;11.68;100.00
11345;BME280;5727;42.600;23.028;2023-04-25T04:50:25;92799.75;;;11.76;100.00
11345;BME280;5727;42.600;23.028;2023-04-25T04:52:52;92805.03;;;11.80;100.00
11345;BME280;5727;42.600;23.028;2023-04-25T04:55:20;92805.88;;;11.87;100.00
11345;BME280;5727;42.600;23.028;2023-04-25T04:57:47;92803.00;;;11.96;100.00
11345;BME280;5727;42.600;23.028;2023-04-25T05:00:14;92811.59;;;11.93;100.00
11345;BME280;5727;42.600;23.028;2023-04-25T05:02:41;92812.09;;;12.02;100.00
11345;BME280;5727;42.600;23.028;2023-04-25T05:05:10;92812.94;;;12.10;100.00
11345;BME280;5727;42.600;23.028;2023-04-25T05:07:36;92814.81;;;12.09;100.00
11345;BME280;5727;42.600;23.028;2023-04-25T05:10:04;92818.16;;;12.06;100.00
11345;BME280;5727;42.600;23.028;2023-04-25T05:12:31;92810.03;;;12.18;100.00
11345;BME280;5727;42.600;23.028;2023-04-25T05:14:58;92816.81;;;12.19;100.00
11345;BME280;5727;42.600;23.028;2023-04-25T05:17:25;92812.84;;;12.03;100.00
11345;BME280;5727;42.600;23.028;2023-04-25T05:19:52;92813.72;;;12.10;100.00
11345;BME280;5727;42.600;23.028;2023-04-25T05:22:20;92813.03;;;12.17;100.00
11345;BME280;5727;42.600;23.028;2023-04-25T05:24:47;92812.72;;;12.22;100.00
11345;BME280;5727;42.600;23.028;2023-04-25T05:27:16;92813.91;;;12.28;100.00
11345;BME280;5727;42.600;23.028;2023-04-25T05:29:43;92811.78;;;12.37;100.00
11345;BME280;5727;42.600;23.028;2023-04-25T05:32:10;92813.44;;;12.48;100.00
11345;BME280;5727;42.600;23.028;2023-04-25T05:34:37;92806.78;;;12.58;100.00
11345;BME280;5727;42.600;23.028;2023-04-25T05:37:04;92808.81;;;12.71;100.00
11345;BME280;5727;42.600;23.028;2023-04-25T05:39:32;92812.69;;;12.84;100.00
11345;BME280;5727;42.600;23.028;2023-04-25T05:41:58;92808.66;;;12.94;100.00
11345;BME280;5727;42.600;23.028;2023-04-25T05:44:26;92816.13;;;12.88;100.00
11345;BME280;5727;42.600;23.028;2023-04-25T05:46:53;92814.97;;;12.86;100.00
11345;BME280;5727;42.600;23.028;2023-04-25T05:49:20;92812.38;;;12.93;100.00
11345;BME280;5727;42.600;23.028;2023-04-25T05:51:47;92810.94;;;12.99;100.00
11345;BME280;5727;42.600;23.028;2023-04-25T05:54:14;92809.56;;;13.09;100.00
11345;BME280;5727;42.600;23.028;2023-04-25T05:56:42;92810.34;;;13.09;100.00
11345;BME280;5727;42.600;23.028;2023-04-25T05:59:08;92813.13;;;13.27;100.00
11345;BME280;5727;42.600;23.028;2023-04-25T06:01:35;92809.44;;;13.35;100.00
11345;BME280;5727;42.600;23.028;2023-04-25T06:04:02;92817.81;;;13.51;100.00
11345;BME280;5727;42.600;23.028;2023-04-25T06:06:29;92820.53;;;13.58;100.00
11345;BME280;5727;42.600;23.028;2023-04-25T06:08:55;92821.34;;;13.69;100.00
11345;BME280;5727;42.600;23.028;2023-04-25T06:11:22;92821.00;;;13.74;100.00
11345;BME280;5727;42.600;23.028;2023-04-25T06:13:50;92822.56;;;13.82;100.00
11345;BME280;5727;42.600;23.028;2023-04-25T06:16:17;92815.88;;;13.95;100.00
11345;BME280;5727;42.600;23.028;2023-04-25T06:18:45;92819.25;;;13.92;100.00
11345;BME280;5727;42.600;23.028;2023-04-25T06:21:12;92825.38;;;14.10;100.00
11345;BME280;5727;42.600;23.028;2023-04-25T06:23:38;92826.88;;;14.08;100.00
11345;BME280;5727;42.600;23.028;2023-04-25T06:26:05;92833.72;;;14.23;100.00
11345;BME280;5727;42.600;23.028;2023-04-25T06:28:32;92834.28;;;13.92;100.00
11345;BME280;5727;42.600;23.028;2023-04-25T06:31:00;92836.78;;;13.74;100.00
11345;BME280;5727;42.600;23.028;2023-04-25T06:33:29;92834.31;;;13.95;100.00
11345;BME280;5727;42.600;23.028;2023-04-25T06:35:55;92826.03;;;13.93;100.00
11345;BME280;5727;42.600;23.028;2023-04-25T06:38:22;92830.50;;;13.89;100.00
11345;BME280;5727;42.600;23.028;2023-04-25T06:40:49;92825.72;;;14.05;100.00
11345;BME280;5727;42.600;23.028;2023-04-25T06:43:16;92831.06;;;14.16;100.00
11345;BME280;5727;42.600;23.028;2023-04-25T06:45:43;92841.22;;;14.17;100.00
11345;BME280;5727;42.600;23.028;2023-04-25T06:48:11;92838.25;;;14.22;100.00
11345;BME280;5727;42.600;23.028;2023-04-25T06:50:38;92834.84;;;14.22;100.00
11345;BME280;5727;42.600;23.028;2023-04-25T06:53:04;92841.88;;;14.00;100.00
11345;BME280;5727;42.600;23.028;2023-04-25T06:55:31;92836.56;;;13.93;100.00
11345;BME280;5727;42.600;23.028;2023-04-25T06:57:58;92836.53;;;13.90;100.00
11345;BME280;5727;42.600;23.028;2023-04-25T07:00:25;92825.44;;;14.17;100.00
11345;BME280;5727;42.600;23.028;2023-04-25T07:02:53;92833.13;;;14.50;100.00
11345;BME280;5727;42.600;23.028;2023-04-25T07:05:21;92840.72;;;14.69;100.00
11345;BME280;5727;42.600;23.028;2023-04-25T07:07:48;92837.06;;;14.92;100.00
11345;BME280;5727;42.600;23.028;2023-04-25T07:10:15;92833.28;;;14.93;100.00
11345;BME280;5727;42.600;23.028;2023-04-25T07:12:41;92838.44;;;14.57;100.00
11345;BME280;5727;42.600;23.028;2023-04-25T07:15:09;92837.75;;;14.68;100.00
11345;BME280;5727;42.600;23.028;2023-04-25T07:17:36;92835.75;;;14.43;100.00
11345;BME280;5727;42.600;23.028;2023-04-25T07:20:04;92835.03;;;14.53;100.00
11345;BME280;5727;42.600;23.028;2023-04-25T07:22:34;92841.50;;;14.66;100.00
11345;BME280;5727;42.600;23.028;2023-04-25T07:25:01;92824.13;;;14.55;100.00
11345;BME280;5727;42.600;23.028;2023-04-25T07:27:29;92835.38;;;14.45;100.00
11345;BME280;5727;42.600;23.028;2023-04-25T07:29:56;92821.78;;;14.39;100.00
11345;BME280;5727;42.600;23.028;2023-04-25T07:32:23;92820.69;;;14.47;100.00
11345;BME280;5727;42.600;23.028;2023-04-25T07:34:49;92823.31;;;14.44;100.00
11345;BME280;5727;42.600;23.028;2023-04-25T07:37:16;92810.34;;;14.14;100.00
11345;BME280;5727;42.600;23.028;2023-04-25T07:39:45;92816.00;;;14.16;100.00
11345;BME280;5727;42.600;23.028;2023-04-25T07:42:12;92803.97;;;14.15;100.00
11345;BME280;5727;42.600;23.028;2023-04-25T07:44:39;92807.84;;;14.35;100.00
11345;BME280;5727;42.600;23.028;2023-04-25T07:47:06;92825.59;;;14.49;100.00
11345;BME280;5727;42.600;23.028;2023-04-25T07:49:33;92816.59;;;14.50;100.00
11345;BME280;5727;42.600;23.028;2023-04-25T07:52:00;92812.84;;;14.58;100.00
11345;BME280;5727;42.600;23.028;2023-04-25T07:54:27;92814.47;;;14.91;100.00
11345;BME280;5727;42.600;23.028;2023-04-25T07:56:55;92815.56;;;14.90;100.00
11345;BME280;5727;42.600;23.028;2023-04-25T07:59:22;92823.88;;;14.99;100.00
11345;BME280;5727;42.600;23.028;2023-04-25T08:01:48;92825.38;;;14.89;100.00
11345;BME280;5727;42.600;23.028;2023-04-25T08:04:15;92816.66;;;14.75;100.00
11345;BME280;5727;42.600;23.028;2023-04-25T08:06:43;92820.47;;;14.81;100.00
11345;BME280;5727;42.600;23.028;2023-04-25T08:09:10;92818.22;;;14.86;100.00
11345;BME280;5727;42.600;23.028;2023-04-25T08:11:37;92828.44;;;15.05;100.00
11345;BME280;5727;42.600;23.028;2023-04-25T08:14:06;92821.25;;;14.99;100.00
11345;BME280;5727;42.600;23.028;2023-04-25T08:16:33;92817.44;;;14.89;100.00
11345;BME280;5727;42.600;23.028;2023-04-25T08:18:59;92811.06;;;14.94;100.00
11345;BME280;5727;42.600;23.028;2023-04-25T08:21:26;92812.22;;;15.14;100.00
11345;BME280;5727;42.600;23.028;2023-04-25T08:23:53;92808.47;;;15.08;100.00
11345;BME280;5727;42.600;23.028;2023-04-25T08:26:20;92800.53;;;15.04;100.00
11345;BME280;5727;42.600;23.028;2023-04-25T08:28:46;92796.81;;;15.30;100.00
11345;BME280;5727;42.600;23.028;2023-04-25T08:31:15;92807.75;;;15.25;100.00
11345;BME280;5727;42.600;23.028;2023-04-25T08:33:41;92802.44;;;15.18;100.00
11345;BME280;5727;42.600;23.028;2023-04-25T08:36:09;92821.66;;;15.11;100.00
11345;BME280;5727;42.600;23.028;2023-04-25T08:38:35;92811.09;;;15.25;100.00
11345;BME280;5727;42.600;23.028;2023-04-25T08:41:03;92806.59;;;15.29;95.66
11345;BME280;5727;42.600;23.028;2023-04-25T08:43:32;92817.19;;;15.47;93.01
11345;BME280;5727;42.600;23.028;2023-04-25T08:46:00;92810.78;;;15.62;83.65
11345;BME280;5727;42.600;23.028;2023-04-25T08:48:28;92809.31;;;15.54;82.71
11345;BME280;5727;42.600;23.028;2023-04-25T08:50:56;92810.81;;;15.69;69.93
11345;BME280;5727;42.600;23.028;2023-04-25T08:53:26;92801.72;;;15.88;75.36
11345;BME280;5727;42.600;23.028;2023-04-25T08:55:54;92789.94;;;16.27;73.04
11345;BME280;5727;42.600;23.028;2023-04-25T08:58:21;92796.41;;;16.19;72.68
11345;BME280;5727;42.600;23.028;2023-04-25T09:00:49;92794.91;;;16.08;72.51
11345;BME280;5727;42.600;23.028;2023-04-25T09:03:16;92790.38;;;16.05;73.43
11345;BME280;5727;42.600;23.028;2023-04-25T09:05:44;92800.19;;;16.04;76.40
11345;BME280;5727;42.600;23.028;2023-04-25T09:08:11;92795.63;;;16.22;78.46
11345;BME280;5727;42.600;23.028;2023-04-25T09:10:38;92784.97;;;16.47;82.97
11345;BME280;5727;42.600;23.028;2023-04-25T09:13:06;92789.75;;;16.80;73.09
11345;BME280;5727;42.600;23.028;2023-04-25T09:15:47;92785.69;;;16.58;62.45
11345;BME280;5727;42.600;23.028;2023-04-25T09:18:22;92773.97;;;16.63;59.13
11345;BME280;5727;42.600;23.028;2023-04-25T09:20:51;92781.97;;;16.38;59.26
11345;BME280;5727;42.600;23.028;2023-04-25T09:23:19;92797.91;;;16.10;58.70
11345;BME280;5727;42.600;23.028;2023-04-25T09:25:47;92800.59;;;15.82;62.22
11345;BME280;5727;42.600;23.028;2023-04-25T09:28:14;92797.97;;;15.57;64.41
11345;BME280;5727;42.600;23.028;2023-04-25T09:30:41;92801.75;;;15.42;66.36
11345;BME280;5727;42.600;23.028;2023-04-25T09:33:09;92805.06;;;15.07;69.64
11345;BME280;5727;42.600;23.028;2023-04-25T09:35:37;92825.56;;;14.42;82.99
11345;BME280;5727;42.600;23.028;2023-04-25T09:38:10;92819.13;;;13.74;95.30
11345;BME280;5727;42.600;23.028;2023-04-25T09:40:41;92800.94;;;13.52;99.75
11345;BME280;5727;42.600;23.028;2023-04-25T09:43:09;92807.00;;;13.59;100.00
11345;BME280;5727;42.600;23.028;2023-04-25T09:45:41;92801.75;;;13.63;100.00
11345;BME280;5727;42.600;23.028;2023-04-25T09:48:11;92803.44;;;13.89;100.00
11345;BME280;5727;42.600;23.028;2023-04-25T09:50:38;92796.09;;;14.22;100.00
11345;BME280;5727;42.600;23.028;2023-04-25T09:53:06;92784.22;;;14.60;100.00
11345;BME280;5727;42.600;23.028;2023-04-25T09:55:34;92787.72;;;14.89;100.00
11345;BME280;5727;42.600;23.028;2023-04-25T09:58:05;92783.22;;;15.31;100.00
11345;BME280;5727;42.600;23.028;2023-04-25T10:00:33;92785.50;;;15.82;100.00
11345;BME280;5727;42.600;23.028;2023-04-25T10:03:01;92799.41;;;16.25;99.14
11345;BME280;5727;42.600;23.028;2023-04-25T10:05:30;92797.81;;;16.56;87.98
11345;BME280;5727;42.600;23.028;2023-04-25T10:07:59;92794.97;;;16.98;86.74
11345;BME280;5727;42.600;23.028;2023-04-25T10:10:26;92791.47;;;17.15;87.93
11345;BME280;5727;42.600;23.028;2023-04-25T10:12:56;92793.44;;;17.04;81.65
11345;BME280;5727;42.600;23.028;2023-04-25T10:15:23;92791.63;;;16.83;79.94
11345;BME280;5727;42.600;23.028;2023-04-25T10:17:50;92795.06;;;16.77;77.61
11345;BME280;5727;42.600;23.028;2023-04-25T10:20:17;92799.59;;;16.76;74.52
11345;BME280;5727;42.600;23.028;2023-04-25T10:22:44;92787.97;;;16.60;80.47
11345;BME280;5727;42.600;23.028;2023-04-25T10:25:14;92776.13;;;16.85;84.77
11345;BME280;5727;42.600;23.028;2023-04-25T10:27:41;92771.19;;;16.91;82.29
11345;BME280;5727;42.600;23.028;2023-04-25T10:30:13;92781.84;;;16.77;86.65
11345;BME280;5727;42.600;23.028;2023-04-25T10:32:41;92781.25;;;16.23;80.57
11345;BME280;5727;42.600;23.028;2023-04-25T10:35:13;92771.41;;;16.38;80.98
11345;BME280;5727;42.600;23.028;2023-04-25T10:37:57;92782.25;;;16.68;75.38
11345;BME280;5727;42.600;23.028;2023-04-25T10:40:24;92764.44;;;16.83;72.51
11345;BME280;5727;42.600;23.028;2023-04-25T10:42:51;92751.09;;;17.00;73.26
11345;BME280;5727;42.600;23.028;2023-04-25T10:45:20;92752.06;;;17.24;81.20
11345;BME280;5727;42.600;23.028;2023-04-25T10:47:46;92748.59;;;17.34;84.13
11345;BME280;5727;42.600;23.028;2023-04-25T10:50:14;92737.22;;;17.37;82.75
11345;BME280;5727;42.600;23.028;2023-04-25T10:52:41;92731.47;;;17.49;82.02
11345;BME280;5727;42.600;23.028;2023-04-25T10:55:09;92730.59;;;17.63;85.19
11345;BME280;5727;42.600;23.028;2023-04-25T10:57:37;92727.22;;;17.99;81.43
11345;BME280;5727;42.600;23.028;2023-04-25T11:00:13;92718.78;;;18.11;76.01
11345;BME280;5727;42.600;23.028;2023-04-25T11:02:43;92724.44;;;18.10;74.43
11345;BME280;5727;42.600;23.028;2023-04-25T11:05:19;92721.22;;;17.95;74.36
11345;BME280;5727;42.600;23.028;2023-04-25T11:07:50;92719.69;;;17.57;72.38
11345;BME280;5727;42.600;23.028;2023-04-25T11:10:17;92742.50;;;17.37;71.46
11345;BME280;5727;42.600;23.028;2023-04-25T11:12:45;92800.50;;;16.31;79.19
11345;BME280;5727;42.600;23.028;2023-04-25T11:15:12;92829.94;;;14.20;100.00
11345;BME280;5727;42.600;23.028;2023-04-25T11:17:39;92825.19;;;12.28;100.00
11345;BME280;5727;42.600;23.028;2023-04-25T11:20:08;92800.75;;;11.20;100.00
11345;BME280;5727;42.600;23.028;2023-04-25T11:22:38;92791.66;;;11.14;100.00
11345;BME280;5727;42.600;23.028;2023-04-25T11:25:07;92781.66;;;11.23;100.00
11345;BME280;5727;42.600;23.028;2023-04-25T11:27:34;92775.84;;;11.59;100.00
11345;BME280;5727;42.600;23.028;2023-04-25T11:30:12;92770.72;;;12.22;100.00
11345;BME280;5727;42.600;23.028;2023-04-25T11:32:39;92772.09;;;12.78;100.00
11345;BME280;5727;42.600;23.028;2023-04-25T11:35:08;92756.41;;;13.29;100.00
11345;BME280;5727;42.600;23.028;2023-04-25T11:37:35;92759.66;;;13.63;100.00
11345;BME280;5727;42.600;23.028;2023-04-25T11:40:03;92754.56;;;13.95;100.00
11345;BME280;5727;42.600;23.028;2023-04-25T11:42:31;92754.00;;;14.29;100.00
11345;BME280;5727;42.600;23.028;2023-04-25T11:44:58;92760.88;;;14.55;100.00
11345;BME280;5727;42.600;23.028;2023-04-25T11:47:29;92767.00;;;14.98;100.00
11345;BME280;5727;42.600;23.028;2023-04-25T11:49:58;92754.22;;;15.70;100.00
11345;BME280;5727;42.600;23.028;2023-04-25T11:52:35;92754.13;;;16.19;100.00
11345;BME280;5727;42.600;23.028;2023-04-25T11:55:04;92754.78;;;16.52;100.00
11345;BME280;5727;42.600;23.028;2023-04-25T11:57:32;92750.94;;;16.56;100.00
11345;BME280;5727;42.600;23.028;2023-04-25T12:00:06;92756.28;;;16.42;100.00
11345;BME280;5727;42.600;23.028;2023-04-25T12:02:34;92762.75;;;16.30;100.00
11345;BME280;5727;42.600;23.028;2023-04-25T12:05:01;92754.06;;;16.30;100.00
11345;BME280;5727;42.600;23.028;2023-04-25T12:07:30;92764.56;;;17.71;100.00
11345;BME280;5727;42.600;23.028;2023-04-25T12:09:57;92768.47;;;20.44;100.00
11345;BME280;5727;42.600;23.028;2023-04-25T12:12:27;92744.63;;;22.53;77.05
11345;BME280;5727;42.600;23.028;2023-04-25T12:14:54;92757.22;;;24.63;71.55
11345;BME280;5727;42.600;23.028;2023-04-25T12:17:21;92738.91;;;25.84;63.15
11345;BME280;5727;42.600;23.028;2023-04-25T12:19:48;92738.78;;;26.05;52.48
11345;BME280;5727;42.600;23.028;2023-04-25T12:22:20;92730.69;;;25.38;59.80
11345;BME280;5727;42.600;23.028;2023-04-25T12:24:48;92734.44;;;23.90;62.80
11345;BME280;5727;42.600;23.028;2023-04-25T12:27:16;92734.44;;;21.91;59.63
11345;BME280;5727;42.600;23.028;2023-04-25T12:29:51;92737.00;;;20.94;68.05
11345;BME280;5727;42.600;23.028;2023-04-25T12:32:17;92732.63;;;20.48;82.68
11345;BME280;5727;42.600;23.028;2023-04-25T12:34:44;92731.13;;;20.67;81.04
11345;BME280;5727;42.600;23.028;2023-04-25T12:37:11;92731.25;;;21.15;77.18
11345;BME280;5727;42.600;23.028;2023-04-25T12:39:38;92737.22;;;20.48;75.12
11345;BME280;5727;42.600;23.028;2023-04-25T12:42:06;92734.50;;;19.43;79.00
11345;BME280;5727;42.600;23.028;2023-04-25T12:44:37;92739.19;;;18.14;75.87
11345;BME280;5727;42.600;23.028;2023-04-25T12:47:03;92741.59;;;16.30;84.71
11345;BME280;5727;42.600;23.028;2023-04-25T12:49:30;92752.31;;;15.78;91.86
11345;BME280;5727;42.600;23.028;2023-04-25T12:51:57;92758.75;;;15.52;98.22
11345;BME280;5727;42.600;23.028;2023-04-25T12:54:24;92762.13;;;15.28;100.00
11345;BME280;5727;42.600;23.028;2023-04-25T12:56:51;92772.66;;;14.96;100.00